Latest Coastal Weather Observations for Maatsuyker Island

IDT60701

Issued at 10:05 pm EST Tuesday 30 September 2014 (issued every 10 minutes, with the page automatically refreshed every 10 minutes)

About coastal observations | Map of coastal stations | Coastal observations for TAS | Marine services | Other Formats
Station Details ID: 094041 Name: MAATSUYKER ISLAND LIGHTHOUSE Lat: -43.66 Lon: 146.27 Height: 146.5 m
Data from the previous 72 hours. | See also: Recent months at Maatsuyker Island
Date/Time
EST
Temp

°C
Wind Pressure Rain
since 9am
mm
Weather Cloud Vis
km
Sea
Height
m
Swell
Dir
 
Speed
knots
Gust
knots
hPa Trend Height
m
Period
s
Dir
30/10:00pm 6.5 W 19 29 1002.1 - 13.6 - - - - - - -
30/09:56pm 6.1 W 20 45 1002.1 - 13.6 - - - - - - -
30/09:51pm 5.6 WSW 23 52 1002.0 - 13.6 - - - - - - -
30/09:46pm 6.4 W 38 52 1002.1 - 13.6 - - - - - - -
30/09:42pm 7.7 W 24 36 1001.6 - 13.6 - - - - - - -
30/09:30pm 7.6 W 24 30 1001.6 - 13.6 - - - - - - -
30/09:19pm 7.3 WNW 29 39 1001.2 - 13.6 - - - - - - -
30/09:10pm 7.4 NW 35 39 1000.3 - 13.6 - - - - - - -
30/09:00pm 7.0 W 25 39 1001.2 - 13.6 - - - - - - -
30/08:53pm 7.4 W 22 32 1001.1 - 13.6 - - - - - - -
30/08:46pm 7.4 WSW 23 38 1001.0 - 13.6 - - - - - - -
30/08:40pm 7.7 W 30 40 1000.9 - 13.6 - - - - - - -
30/08:30pm 7.8 WNW 32 40 999.8 - 13.6 - - - - - - -
30/08:29pm 7.8 WNW 30 40 999.8 - 13.6 - - - - - - -
30/08:00pm 7.6 WNW 29 35 999.9 - 13.6 - - - - - - -
30/07:30pm 7.7 WNW 32 39 999.3 - 13.6 - - - - - - -
30/07:00pm 7.5 WNW 32 39 998.1 - 13.6 - - - - - - -
30/06:49pm 7.2 WNW 28 39 997.7 - 13.6 - - - - - - -
30/06:41pm 5.6 W 28 50 998.4 - 13.6 - - - - - - -
30/06:39pm 5.4 WNW 40 50 998.4 - 13.4 - - - - - - -
30/06:38pm 5.8 WNW 44 50 997.2 - 13.0 - - - - - - -
30/06:36pm 7.7 WNW 26 44 997.8 - 12.4 - - - - - - -
30/06:30pm 7.6 WNW 28 36 997.8 - 12.4 - - - - - - -
30/06:09pm 8.0 WNW 31 42 997.1 - 12.4 - - - - - - -
30/06:00pm 8.0 WNW 32 38 996.7 - 12.4 - - - - - - -
30/05:31pm 7.5 WNW 27 37 996.7 - 12.4 - - - - - - -
30/05:30pm 7.6 WNW 27 35 996.3 - 12.4 - - - - - - -
30/05:13pm 6.6 WNW 28 43 996.0 - 12.4 - - - - - - -
30/05:00pm 6.4 WNW 39 45 995.9 - 12.2 - - - - - - -
30/04:32pm 6.8 WNW 33 43 994.7 - 12.0 - - - - - - -
30/04:30pm 6.8 WNW 34 43 994.7 - 12.0 - - - - - - -
30/04:26pm 7.0 WNW 37 43 994.5 - 12.0 - - - - - - -
30/04:04pm 7.3 WNW 25 35 994.1 - 11.2 - - - - - - -
30/04:00pm 7.0 WNW 26 34 993.9 - 11.2 - - - - - - -
30/03:45pm 7.2 W 21 38 994.1 - 11.0 - - - - - - -
30/03:43pm 7.5 NNW 19 38 993.1 - 10.8 - - - - - - -
30/03:30pm 7.4 NNW 14 20 993.7 - 10.4 - - - - - - -
30/03:00pm 7.3 W 25 35 993.3 R 10.0 Showers Cloudy 3 2 4.5 13 SW
30/02:44pm 7.7 NW 25 36 993.1 - 9.4 - - - - - - -
30/02:30pm 7.7 NNW 21 28 993.6 - 8.4 - - - - - - -
30/02:00pm 7.6 NNW 17 23 993.3 - 7.0 - - - - - - -
30/01:30pm 7.6 NNW 17 23 993.5 - 6.6 - - - - - - -
30/01:00pm 7.6 NNW 21 27 993.8 - 6.0 - - - - - - -
30/12:30pm 7.5 NNW 24 31 993.9 - 5.2 - - - - - - -
30/12:18pm 7.6 NNW 22 34 993.8 - 4.4 - - - - - - -
30/12:00pm 8.1 NW 35 41 993.4 - 3.6 - - - - - - -
30/11:47am 8.3 NW 38 42 993.3 - 3.2 - - - - - - -
30/11:44am 8.7 NNW 25 36 993.5 - 3.2 - - - - - - -
30/11:30am 8.4 NNW 22 27 993.8 - 3.0 - - - - - - -
30/11:20am 8.4 NNW 24 31 993.7 - 2.8 - - - - - - -
30/11:00am 8.7 NW 35 40 993.9 - 2.6 - - - - - - -
30/10:30am 9.1 NW 30 37 994.3 - 2.0 - - - - - - -
30/10:00am 9.0 NW 28 32 994.4 - 1.6 - - - - - - -
30/09:00am 9.0 WNW 38 40 994.4 R 6.0 Showers Cloudy 3 3 5.0 15 SW
30/08:52am 8.7 NW 41 51 994.0 - 5.6 - - - - - - -
30/08:40am 9.5 NW 44 51 992.9 - 5.0 - - - - - - -
30/08:30am 11.1 NNW 27 38 993.1 - 3.6 - - - - - - -
30/08:00am 11.4 NNW 34 52 992.6 - 2.8 - - - - - - -
30/07:30am 11.3 NNW 32 42 992.9 - 2.6 - - - - - - -
30/07:00am 10.9 NNW 30 40 993.6 - 2.0 - - - - - - -
30/06:30am 11.5 NNW 33 44 993.2 - 0.8 - - - - - - -
30/06:00am 11.8 NW 28 48 993.5 F 0.4 Showers Mostly cloudy 4 3 4.0 15 W
30/05:30am 12.2 NNW 33 44 993.2 - 0.4 - - - - - - -
30/05:00am 12.1 NNW 33 45 993.2 - 0.4 - - - - - - -
30/04:30am 11.8 NNW 32 42 993.8 - 0.4 - - - - - - -
30/04:00am 11.7 NNW 30 40 994.6 - 0.4 - - - - - - -
30/03:30am 11.6 NNW 30 40 995.0 - 0.4 - - - - - - -
30/03:12am 11.5 NNW 29 39 995.5 - 0.4 - - - - - - -
30/03:00am 11.6 NNW 28 36 995.6 - 0.4 - - - - - - -
30/02:30am 11.7 NNW 34 50 995.9 - 0.4 - - - - - - -
30/02:00am 11.2 NNW 36 46 996.6 - 0.4 - - - - - - -
30/01:30am 10.9 NNW 36 53 997.0 - 0.4 - - - - - - -
30/01:00am 10.9 NNW 41 57 996.7 - 0.2 - - - - - - -
30/12:30am 10.4 NNW 41 52 997.6 - 0.2 - - - - - - -
30/12:00am 11.2 NNW 35 51 997.7 - 0.2 - - - - - - -
 
Date/Time
EST
Temp

°C
Wind Pressure Rain
since 9am
mm
Weather Cloud Vis
km
Sea
Height
m
Swell
Dir
 
Speed
knots
Gust
knots
hPa Trend Height
m
Period
s
Dir
29/11:30pm 11.4 NNW 38 49 997.8 - 0.2 - - - - - - -
29/11:00pm 11.4 NNW 34 44 998.4 - 0.2 - - - - - - -
29/10:30pm 11.6 NNW 40 57 998.7 - 0.2 - - - - - - -
29/10:00pm 11.5 NNW 40 51 998.5 - 0.0 - - - - - - -
29/09:43pm 11.3 NNW 37 47 998.4 - 0.0 - - - - - - -
29/09:30pm 11.3 NNW 38 46 998.7 - 0.0 - - - - - - -
29/09:00pm 11.3 NNW 37 52 998.4 - 0.0 - - - - - - -
29/08:30pm 11.2 NNW 39 50 998.9 - 0.0 - - - - - - -
29/08:00pm 10.3 NNW 36 47 999.2 - 0.0 - - - - - - -
29/07:30pm 10.7 NNW 34 46 999.3 - 0.0 - - - - - - -
29/07:00pm 11.4 NNW 33 45 999.3 - 0.0 - - - - - - -
29/06:30pm 11.2 NNW 35 45 999.2 - 0.0 - - - - - - -
29/06:00pm 10.7 NNW 37 52 999.2 - 0.0 - - - - - - -
29/05:52pm 11.3 NNW 35 51 999.2 - 0.0 - - - - - - -
29/05:50pm 11.2 NNW 34 51 999.4 - 0.0 - - - - - - -
29/05:30pm 10.6 NNW 45 60 998.5 - 0.0 - - - - - - -
29/05:29pm 10.8 NNW 47 60 998.2 - 0.0 - - - - - - -
29/05:27pm 11.1 NNW 48 57 998.3 - 0.0 - - - - - - -
29/05:00pm 11.9 NNW 36 48 999.5 - 0.0 - - - - - - -
29/04:44pm 12.0 NNW 41 51 999.5 - 0.0 - - - - - - -
29/04:40pm 12.0 NNW 45 51 999.1 - 0.0 - - - - - - -
29/04:32pm 12.0 NNW 32 44 999.6 - 0.0 - - - - - - -
29/04:30pm 12.0 NNW 31 44 999.7 - 0.0 - - - - - - -
29/04:28pm 12.0 NNW 29 46 999.5 - 0.0 - - - - - - -
29/04:00pm 12.3 NNW 42 52 999.1 - 0.0 - - - - - - -
29/03:30pm 12.3 NNW 36 49 999.5 - 0.0 - - - - - - -
29/03:00pm 12.0 WNW 30 53 999.7 F 0.0 Distant precip. Mostly cloudy 6 3 3.5 15 SW
29/02:49pm 12.1 NNW 37 53 999.9 - 0.0 - - - - - - -
29/02:30pm 11.8 NNW 32 42 1000.5 - 0.0 - - - - - - -
29/02:00pm 12.1 NNW 40 55 999.4 - 0.0 - - - - - - -
29/01:31pm 10.0 NNW 40 50 1000.4 - 0.0 - - - - - - -
29/01:30pm 9.9 NNW 41 50 1000.2 - 0.0 - - - - - - -
29/01:00pm 11.7 NNW 37 48 1000.4 - 0.0 - - - - - - -
29/12:30pm 11.8 NNW 36 50 1000.6 - 0.0 - - - - - - -
29/12:00pm 11.9 NNW 38 48 1001.3 - 0.0 - - - - - - -
29/11:30am 11.8 NNW 35 48 1001.2 - 0.0 - - - - - - -
29/11:01am 11.6 NNW 41 52 1000.6 - 0.0 - - - - - - -
29/11:00am 11.6 NNW 43 52 1000.2 - 0.0 - - - - - - -
29/10:59am 11.6 NNW 43 52 1000.6 - 0.0 - - - - - - -
29/10:43am 11.2 NNW 31 44 1000.8 - 0.0 - - - - - - -
29/10:30am 10.9 NNW 30 39 1001.3 - 0.0 - - - - - - -
29/10:02am 10.8 NNW 31 41 1001.2 - 0.0 - - - - - - -
29/10:00am 10.8 NNW 31 39 1001.1 - 0.0 - - - - - - -
29/09:30am 10.9 NNW 36 44 1001.0 - 0.0 - - - - - - -
29/09:03am 10.1 NNW 33 43 1001.2 - 0.0 - - - - - - -
29/09:00am 10.0 WNW 38 39 1001.1 R 21.8 Showers Mostly cloudy 6 3 4.0 13 SW
29/08:46am 8.6 NNW 26 51 1001.3 - 21.8 - - - - - - -
29/08:42am 8.0 NNW 41 51 1000.5 - 21.8 - - - - - - -
29/08:38am 8.5 NW 46 51 1000.4 - 21.6 - - - - - - -
29/08:36am 10.5 NW 34 49 1000.8 - 21.6 - - - - - - -
29/08:30am 10.6 NW 34 42 1000.6 - 21.6 - - - - - - -
29/08:00am 10.0 NW 40 47 1000.1 - 21.6 - - - - - - -
29/07:30am 10.3 NW 41 53 998.8 - 21.6 - - - - - - -
29/07:00am 10.1 NW 41 46 999.1 - 21.6 - - - - - - -
29/06:48am 9.9 NW 42 47 998.8 - 21.6 - - - - - - -
29/06:38am 9.8 NW 32 43 998.9 - 21.6 - - - - - - -
29/06:30am 8.8 NNW 30 39 999.2 - 21.6 - - - - - - -
29/06:22am 8.0 NW 41 51 999.0 - 21.6 - - - - - - -
29/06:00am 9.6 W 38 51 998.1 R 21.6 Showers Mostly cloudy 5 3 3.5 12 SW
29/05:30am 9.8 NW 44 50 997.1 - 21.6 - - - - - - -
29/05:00am 8.4 NW 44 58 996.9 - 21.4 - - - - - - -
29/04:32am 6.9 NW 45 56 996.3 - 17.4 - - - - - - -
29/04:30am 6.6 NW 44 53 996.5 - 16.8 - - - - - - -
29/04:25am 7.2 NW 45 53 996.9 - 15.4 - - - - - - -
29/04:19am 9.8 NNW 31 43 996.0 - 14.8 - - - - - - -
29/04:00am 9.3 NNW 30 36 996.7 - 14.8 - - - - - - -
29/03:30am 9.0 NNW 34 41 996.1 - 14.8 - - - - - - -
29/03:00am 8.8 NNW 33 41 995.2 - 14.6 - - - - - - -
29/02:50am 8.0 NNW 29 39 994.8 - 13.8 - - - - - - -
29/02:30am 7.7 NNW 32 38 994.5 - 12.6 - - - - - - -
29/02:00am 6.8 NNW 39 47 993.6 - 11.0 - - - - - - -
29/01:44am 9.7 NW 41 54 994.3 - 9.8 - - - - - - -
29/01:30am 11.4 NNW 27 40 993.2 - 9.8 - - - - - - -
29/01:00am 11.5 NNW 26 36 993.8 - 9.8 - - - - - - -
29/12:32am 11.5 NNW 24 34 994.6 - 9.8 - - - - - - -
29/12:30am 11.5 NNW 25 34 994.6 - 9.8 - - - - - - -
29/12:00am 11.3 NNW 25 33 995.0 - 9.8 - - - - - - -
 
Date/Time
EST
Temp

°C
Wind Pressure Rain
since 9am
mm
Weather Cloud Vis
km
Sea
Height
m
Swell
Dir
 
Speed
knots
Gust
knots
hPa Trend Height
m
Period
s
Dir
28/11:30pm 11.6 NNW 23 31 995.4 - 9.8 - - - - - - -
28/11:22pm 11.5 NNW 23 33 995.4 - 9.8 - - - - - - -
28/11:00pm 11.4 NNW 25 33 995.5 - 9.8 - - - - - - -
28/10:33pm 11.5 NNW 24 34 996.2 - 9.8 - - - - - - -
28/10:30pm 11.4 NNW 25 34 996.1 - 9.8 - - - - - - -
28/10:06pm 11.7 NNW 24 35 996.2 - 9.8 - - - - - - -
28/10:00pm 11.6 NNW 24 31 996.5 - 9.8 - - - - - - -
28/09:35pm 11.7 NNW 24 34 996.6 - 9.8 - - - - - - -
28/09:30pm 11.7 NNW 24 29 996.8 - 9.8 - - - - - - -
28/09:00pm 11.8 NNW 23 31 997.1 - 9.8 - - - - - - -
28/08:30pm 12.1 NNW 25 32 996.7 - 9.8 - - - - - - -
28/08:00pm 12.1 NNW 23 32 996.5 - 9.8 - - - - - - -
28/07:30pm 12.1 NNW 25 32 996.3 - 9.6 - - - - - - -
28/07:14pm 12.1 NNW 21 31 996.1 - 9.6 - - - - - - -
28/07:00pm 12.2 NNW 26 32 996.1 - 9.6 - - - - - - -
28/06:30pm 12.0 NNW 25 31 996.0 - 9.6 - - - - - - -
28/06:00pm 11.2 NNW 27 33 995.9 - 9.4 - - - - - - -
28/05:30pm 10.5 NW 32 39 995.6 - 7.8 - - - - - - -
28/05:00pm 10.1 NW 38 44 994.7 - 6.2 - - - - - - -
28/04:45pm 10.5 NW 41 45 994.8 - 5.4 - - - - - - -
28/04:43pm 10.6 NW 30 40 995.4 - 5.2 - - - - - - -
28/04:30pm 12.2 NNW 30 36 994.9 - 4.0 - - - - - - -
28/04:00pm 12.4 NNW 34 41 994.6 - 3.0 - - - - - - -
28/03:30pm 13.1 NNW 42 52 993.6 - 1.8 - - - - - - -
28/03:01pm 14.7 NNW 47 57 993.0 - 0.6 - - - - - - -
28/03:00pm 15.0 WNW 42 57 992.8 S 0.6 Showers Cloudy 4 3 2.5 13 SW
28/02:47pm 15.8 NNW 49 61 992.0 - 0.4 - - - - - - -
28/02:41pm 16.3 NNW 50 58 992.1 - 0.4 - - - - - - -
28/02:33pm 16.3 NNW 38 52 992.8 - 0.2 - - - - - - -
28/02:30pm 16.1 NNW 36 44 993.1 - 0.2 - - - - - - -
28/02:00pm 17.3 NNW 34 45 993.5 - 0.2 - - - - - - -
28/01:30pm 17.4 NNW 35 49 993.6 - 0.0 - - - - - - -
28/01:00pm 19.3 NNW 34 50 993.5 - 0.0 - - - - - - -
28/12:30pm 19.4 NNW 36 54 993.5 - 0.0 - - - - - - -
28/12:00pm 20.3 NNW 38 48 993.8 - 0.0 - - - - - - -
28/11:30am 20.8 NNW 45 63 993.6 - 0.0 - - - - - - -
28/11:00am 21.9 NNW 41 63 993.9 - 0.0 - - - - - - -
28/10:30am 22.4 NNW 42 60 993.6 - 0.0 - - - - - - -
28/10:06am 23.0 NNW 40 64 994.0 - 0.0 - - - - - - -
28/10:00am 22.7 NNW 39 53 994.2 - 0.0 - - - - - - -
28/09:46am 21.6 NW 40 58 994.6 - 0.0 - - - - - - -
28/09:45am 22.5 NW 44 58 994.4 - 0.0 - - - - - - -
28/09:30am 22.5 NNW 34 55 995.5 - 0.0 - - - - - - -
28/09:00am 22.4 NW 32 51 995.3 F 0.0 Haze Cloudy 14 3 1.5 12 SW
28/08:30am 21.5 NNW 35 49 995.9 - 0.0 - - - - - - -
28/08:00am 20.6 NNW 34 47 995.9 - 0.0 - - - - - - -
28/07:30am 19.8 NNW 29 39 996.8 - 0.0 - - - - - - -
28/07:00am 19.6 NNW 33 48 996.9 - 0.0 - - - - - - -
28/06:30am 19.1 NNW 33 44 997.7 - 0.0 - - - - - - -
28/06:00am 19.1 NW 30 49 997.1 F 0.0 Fine Partly cloudy 12 3 2.0 12 SW
28/05:30am 19.1 NNW 33 44 997.9 - 0.0 - - - - - - -
28/05:00am 18.6 NNW 34 44 998.3 - 0.0 - - - - - - -
28/04:33am 17.9 NNW 32 43 998.9 - 0.0 - - - - - - -
28/04:30am 17.8 NNW 31 39 999.2 - 0.0 - - - - - - -
28/04:02am 17.7 NNW 31 41 999.4 - 0.0 - - - - - - -
28/04:00am 17.8 NNW 31 40 999.7 - 0.0 - - - - - - -
28/03:30am 17.6 NNW 30 39 1000.5 - 0.0 - - - - - - -
28/03:00am 17.3 NNW 29 39 1000.6 - 0.0 - - - - - - -
28/02:30am 17.4 NNW 30 40 1001.3 - 0.0 - - - - - - -
28/02:12am 17.2 NNW 28 38 1001.6 - 0.0 - - - - - - -
28/02:00am 17.1 NNW 28 37 1001.7 - 0.0 - - - - - - -
28/01:33am 16.5 NNW 20 31 1003.0 - 0.0 - - - - - - -
28/01:30am 16.5 NNW 19 27 1003.1 - 0.0 - - - - - - -
28/01:00am 16.2 N 19 33 1004.1 - 0.0 - - - - - - -
28/12:42am 15.6 N 15 25 1004.6 - 0.0 - - - - - - -
28/12:30am 15.5 NNW 17 24 1005.1 - 0.0 - - - - - - -
28/12:08am 15.3 N 15 25 1005.6 - 0.0 - - - - - - -
28/12:00am 15.1 N 16 23 1005.8 - 0.0 - - - - - - -
 
Date/Time
EST
Temp

°C
Wind Pressure Rain
since 9am
mm
Weather Cloud Vis
km
Sea
Height
m
Swell
Dir
 
Speed
knots
Gust
knots
hPa Trend Height
m
Period
s
Dir
27/11:30pm 14.7 N 14 20 1006.6 - 0.0 - - - - - - -
27/11:00pm 14.5 N 13 20 1007.3 - 0.0 - - - - - - -
27/10:30pm 14.5 N 13 21 1008.1 - 0.0 - - - - - - -

Other Formats:

Comma delimited format used in spreadsheet applications
http://www.bom.gov.au/fwo/IDT60701/IDT60701.94962.axf

JavaScript Object Notation format (JSON) in row-major order
http://www.bom.gov.au/fwo/IDT60701/IDT60701.94962.json